sensor_id;sensor_type;location;lat;lon;timestamp;temperature;humidity
18266;DHT22;9259;48.194;16.322;2023-12-22T00:01:33;6.50;99.90
18266;DHT22;9259;48.194;16.322;2023-12-22T00:04:02;6.50;99.90
18266;DHT22;9259;48.194;16.322;2023-12-22T00:06:32;6.60;99.90
18266;DHT22;9259;48.194;16.322;2023-12-22T00:09:01;6.70;99.90
18266;DHT22;9259;48.194;16.322;2023-12-22T00:11:29;6.70;99.90
18266;DHT22;9259;48.194;16.322;2023-12-22T00:13:57;6.80;99.90
18266;DHT22;9259;48.194;16.322;2023-12-22T00:16:24;6.80;99.90
18266;DHT22;9259;48.194;16.322;2023-12-22T00:18:52;6.90;99.90
18266;DHT22;9259;48.194;16.322;2023-12-22T00:21:21;7.00;99.90
18266;DHT22;9259;48.194;16.322;2023-12-22T00:23:49;7.00;99.90
18266;DHT22;9259;48.194;16.322;2023-12-22T00:26:18;7.00;99.90
18266;DHT22;9259;48.194;16.322;2023-12-22T00:28:46;7.10;99.90
18266;DHT22;9259;48.194;16.322;2023-12-22T00:31:13;7.10;99.90
18266;DHT22;9259;48.194;16.322;2023-12-22T00:33:41;7.00;99.90
18266;DHT22;9259;48.194;16.322;2023-12-22T00:36:10;7.00;99.90
18266;DHT22;9259;48.194;16.322;2023-12-22T00:38:38;6.90;99.90
18266;DHT22;9259;48.194;16.322;2023-12-22T00:41:05;6.90;99.90
18266;DHT22;9259;48.194;16.322;2023-12-22T00:43:35;6.90;99.90
18266;DHT22;9259;48.194;16.322;2023-12-22T00:46:03;6.90;99.90
18266;DHT22;9259;48.194;16.322;2023-12-22T00:48:30;6.90;99.90
18266;DHT22;9259;48.194;16.322;2023-12-22T00:50:58;6.80;99.90
18266;DHT22;9259;48.194;16.322;2023-12-22T00:53:26;6.80;99.90
18266;DHT22;9259;48.194;16.322;2023-12-22T00:55:54;6.80;99.90
18266;DHT22;9259;48.194;16.322;2023-12-22T00:58:22;6.70;99.90
18266;DHT22;9259;48.194;16.322;2023-12-22T01:00:51;6.70;99.90
18266;DHT22;9259;48.194;16.322;2023-12-22T01:03:18;6.70;99.90
18266;DHT22;9259;48.194;16.322;2023-12-22T01:05:46;6.70;99.90
18266;DHT22;9259;48.194;16.322;2023-12-22T01:08:14;6.70;99.90
18266;DHT22;9259;48.194;16.322;2023-12-22T01:10:42;6.70;99.90
18266;DHT22;9259;48.194;16.322;2023-12-22T01:13:10;6.70;99.90
18266;DHT22;9259;48.194;16.322;2023-12-22T01:15:37;6.60;99.90
18266;DHT22;9259;48.194;16.322;2023-12-22T01:18:07;6.60;99.90
18266;DHT22;9259;48.194;16.322;2023-12-22T01:20:34;6.70;99.90
18266;DHT22;9259;48.194;16.322;2023-12-22T01:23:03;6.70;99.90
18266;DHT22;9259;48.194;16.322;2023-12-22T01:25:30;6.70;99.90
18266;DHT22;9259;48.194;16.322;2023-12-22T01:27:58;6.70;99.90
18266;DHT22;9259;48.194;16.322;2023-12-22T01:30:26;6.70;99.90
18266;DHT22;9259;48.194;16.322;2023-12-22T01:32:54;6.70;99.90
18266;DHT22;9259;48.194;16.322;2023-12-22T01:35:23;6.70;99.90
18266;DHT22;9259;48.194;16.322;2023-12-22T01:37:51;6.60;99.90
18266;DHT22;9259;48.194;16.322;2023-12-22T01:40:19;6.60;99.90
18266;DHT22;9259;48.194;16.322;2023-12-22T01:42:47;6.70;99.90
18266;DHT22;9259;48.194;16.322;2023-12-22T01:45:15;6.70;99.90
18266;DHT22;9259;48.194;16.322;2023-12-22T01:47:44;6.80;99.90
18266;DHT22;9259;48.194;16.322;2023-12-22T01:50:12;6.70;99.90
18266;DHT22;9259;48.194;16.322;2023-12-22T01:52:43;6.80;99.90
18266;DHT22;9259;48.194;16.322;2023-12-22T01:55:13;6.80;99.90
18266;DHT22;9259;48.194;16.322;2023-12-22T01:57:44;6.80;99.90
18266;DHT22;9259;48.194;16.322;2023-12-22T02:00:13;6.80;99.90
18266;DHT22;9259;48.194;16.322;2023-12-22T02:02:41;6.80;99.90
18266;DHT22;9259;48.194;16.322;2023-12-22T02:05:10;6.80;99.90
18266;DHT22;9259;48.194;16.322;2023-12-22T02:07:38;6.80;99.90
18266;DHT22;9259;48.194;16.322;2023-12-22T02:10:10;6.80;99.90
18266;DHT22;9259;48.194;16.322;2023-12-22T02:12:38;6.80;99.90
18266;DHT22;9259;48.194;16.322;2023-12-22T02:15:07;6.80;99.90
18266;DHT22;9259;48.194;16.322;2023-12-22T02:17:42;6.70;99.90
18266;DHT22;9259;48.194;16.322;2023-12-22T02:20:13;6.70;99.90
18266;DHT22;9259;48.194;16.322;2023-12-22T02:22:42;6.60;99.90
18266;DHT22;9259;48.194;16.322;2023-12-22T02:25:10;6.60;99.90
18266;DHT22;9259;48.194;16.322;2023-12-22T02:27:42;6.50;99.90
18266;DHT22;9259;48.194;16.322;2023-12-22T02:30:14;6.50;99.90
18266;DHT22;9259;48.194;16.322;2023-12-22T02:32:49;6.50;99.90
18266;DHT22;9259;48.194;16.322;2023-12-22T02:35:20;6.50;99.90
18266;DHT22;9259;48.194;16.322;2023-12-22T02:37:50;7.40;99.90
18266;DHT22;9259;48.194;16.322;2023-12-22T02:40:19;6.50;99.90
18266;DHT22;9259;48.194;16.322;2023-12-22T02:42:48;6.50;99.90
18266;DHT22;9259;48.194;16.322;2023-12-22T02:45:17;6.50;99.90
18266;DHT22;9259;48.194;16.322;2023-12-22T02:47:45;6.40;99.90
18266;DHT22;9259;48.194;16.322;2023-12-22T02:50:15;6.10;99.90
18266;DHT22;9259;48.194;16.322;2023-12-22T02:52:44;6.40;99.90
18266;DHT22;9259;48.194;16.322;2023-12-22T02:55:13;6.40;99.90
18266;DHT22;9259;48.194;16.322;2023-12-22T02:57:41;6.40;99.90
18266;DHT22;9259;48.194;16.322;2023-12-22T03:00:10;6.40;99.90
18266;DHT22;9259;48.194;16.322;2023-12-22T03:02:38;6.40;99.90
18266;DHT22;9259;48.194;16.322;2023-12-22T03:05:06;6.30;99.90
18266;DHT22;9259;48.194;16.322;2023-12-22T03:07:34;6.30;99.90
18266;DHT22;9259;48.194;16.322;2023-12-22T03:10:02;6.20;99.90
18266;DHT22;9259;48.194;16.322;2023-12-22T03:12:32;6.20;99.90
18266;DHT22;9259;48.194;16.322;2023-12-22T03:15:00;6.20;99.90
18266;DHT22;9259;48.194;16.322;2023-12-22T03:17:27;6.10;99.90
18266;DHT22;9259;48.194;16.322;2023-12-22T03:19:55;6.10;99.90
18266;DHT22;9259;48.194;16.322;2023-12-22T03:22:23;6.00;99.90
18266;DHT22;9259;48.194;16.322;2023-12-22T03:24:51;6.00;99.90
18266;DHT22;9259;48.194;16.322;2023-12-22T03:27:19;5.90;99.90
18266;DHT22;9259;48.194;16.322;2023-12-22T03:29:48;5.80;99.90
18266;DHT22;9259;48.194;16.322;2023-12-22T03:32:16;5.80;99.90
18266;DHT22;9259;48.194;16.322;2023-12-22T03:34:44;5.70;99.90
18266;DHT22;9259;48.194;16.322;2023-12-22T03:37:12;5.60;99.90
18266;DHT22;9259;48.194;16.322;2023-12-22T03:39:39;5.60;99.90
18266;DHT22;9259;48.194;16.322;2023-12-22T03:42:07;5.60;99.90
18266;DHT22;9259;48.194;16.322;2023-12-22T03:44:35;5.60;99.90
18266;DHT22;9259;48.194;16.322;2023-12-22T03:47:04;5.60;99.90
18266;DHT22;9259;48.194;16.322;2023-12-22T03:49:32;5.60;99.90
18266;DHT22;9259;48.194;16.322;2023-12-22T03:52:00;5.60;99.90
18266;DHT22;9259;48.194;16.322;2023-12-22T03:54:28;5.60;99.90
18266;DHT22;9259;48.194;16.322;2023-12-22T03:56:56;5.60;99.90
18266;DHT22;9259;48.194;16.322;2023-12-22T03:59:23;5.60;99.90
18266;DHT22;9259;48.194;16.322;2023-12-22T04:01:51;5.60;99.90
18266;DHT22;9259;48.194;16.322;2023-12-22T04:04:22;5.70;99.90
18266;DHT22;9259;48.194;16.322;2023-12-22T04:06:53;5.60;99.90
18266;DHT22;9259;48.194;16.322;2023-12-22T04:09:21;5.70;99.90
18266;DHT22;9259;48.194;16.322;2023-12-22T04:11:49;5.70;99.90
18266;DHT22;9259;48.194;16.322;2023-12-22T04:14:17;5.70;99.90
18266;DHT22;9259;48.194;16.322;2023-12-22T04:16:45;5.60;99.90
18266;DHT22;9259;48.194;16.322;2023-12-22T04:19:13;5.60;99.90
18266;DHT22;9259;48.194;16.322;2023-12-22T04:21:42;5.60;99.90
18266;DHT22;9259;48.194;16.322;2023-12-22T04:24:10;5.50;99.90
18266;DHT22;9259;48.194;16.322;2023-12-22T04:26:38;5.50;99.90
18266;DHT22;9259;48.194;16.322;2023-12-22T04:29:06;5.60;99.90
18266;DHT22;9259;48.194;16.322;2023-12-22T04:31:33;5.50;99.90
18266;DHT22;9259;48.194;16.322;2023-12-22T04:34:01;5.60;99.90
18266;DHT22;9259;48.194;16.322;2023-12-22T04:36:29;5.60;99.90
18266;DHT22;9259;48.194;16.322;2023-12-22T04:38:58;5.60;99.90
18266;DHT22;9259;48.194;16.322;2023-12-22T04:41:26;5.60;99.90
18266;DHT22;9259;48.194;16.322;2023-12-22T04:43:54;5.70;99.90
18266;DHT22;9259;48.194;16.322;2023-12-22T04:46:22;5.80;99.90
18266;DHT22;9259;48.194;16.322;2023-12-22T04:48:49;5.80;99.90
18266;DHT22;9259;48.194;16.322;2023-12-22T04:51:17;5.80;99.90
18266;DHT22;9259;48.194;16.322;2023-12-22T04:53:45;5.90;99.90
18266;DHT22;9259;48.194;16.322;2023-12-22T04:56:14;5.90;99.90
18266;DHT22;9259;48.194;16.322;2023-12-22T04:58:42;5.90;99.90
18266;DHT22;9259;48.194;16.322;2023-12-22T05:01:10;5.90;99.90
18266;DHT22;9259;48.194;16.322;2023-12-22T05:03:38;5.90;99.90
18266;DHT22;9259;48.194;16.322;2023-12-22T05:06:06;6.00;99.90
18266;DHT22;9259;48.194;16.322;2023-12-22T05:08:34;6.00;99.90
18266;DHT22;9259;48.194;16.322;2023-12-22T05:11:02;6.00;99.90
18266;DHT22;9259;48.194;16.322;2023-12-22T05:13:32;6.00;99.90
18266;DHT22;9259;48.194;16.322;2023-12-22T05:16:00;6.00;99.90
18266;DHT22;9259;48.194;16.322;2023-12-22T05:18:28;6.00;99.90
18266;DHT22;9259;48.194;16.322;2023-12-22T05:20:56;6.00;99.90
18266;DHT22;9259;48.194;16.322;2023-12-22T05:23:24;6.00;99.90
18266;DHT22;9259;48.194;16.322;2023-12-22T05:25:51;6.00;99.90
18266;DHT22;9259;48.194;16.322;2023-12-22T05:28:19;6.00;99.90
18266;DHT22;9259;48.194;16.322;2023-12-22T05:30:48;6.00;99.90
18266;DHT22;9259;48.194;16.322;2023-12-22T05:33:16;6.00;99.90
18266;DHT22;9259;48.194;16.322;2023-12-22T05:35:44;6.00;99.90
18266;DHT22;9259;48.194;16.322;2023-12-22T05:38:12;6.00;99.90
18266;DHT22;9259;48.194;16.322;2023-12-22T05:40:40;6.00;99.90
18266;DHT22;9259;48.194;16.322;2023-12-22T05:43:08;5.90;99.90
18266;DHT22;9259;48.194;16.322;2023-12-22T05:45:35;5.90;99.90
18266;DHT22;9259;48.194;16.322;2023-12-22T05:48:06;5.90;99.90
18266;DHT22;9259;48.194;16.322;2023-12-22T05:50:34;5.90;99.90
18266;DHT22;9259;48.194;16.322;2023-12-22T05:53:02;5.80;99.90
18266;DHT22;9259;48.194;16.322;2023-12-22T05:55:30;5.80;99.90
18266;DHT22;9259;48.194;16.322;2023-12-22T05:57:58;5.70;99.90
18266;DHT22;9259;48.194;16.322;2023-12-22T06:00:26;5.70;99.90
18266;DHT22;9259;48.194;16.322;2023-12-22T06:02:54;5.60;99.90
18266;DHT22;9259;48.194;16.322;2023-12-22T06:05:23;5.60;99.90
18266;DHT22;9259;48.194;16.322;2023-12-22T06:07:51;5.60;99.90
18266;DHT22;9259;48.194;16.322;2023-12-22T06:10:19;5.60;99.90
18266;DHT22;9259;48.194;16.322;2023-12-22T06:12:47;5.50;99.90
18266;DHT22;9259;48.194;16.322;2023-12-22T06:15:15;5.50;99.90
18266;DHT22;9259;48.194;16.322;2023-12-22T06:17:42;5.50;99.90
18266;DHT22;9259;48.194;16.322;2023-12-22T06:20:10;5.40;99.90
18266;DHT22;9259;48.194;16.322;2023-12-22T06:22:40;5.40;99.90
18266;DHT22;9259;48.194;16.322;2023-12-22T06:25:08;5.30;99.90
18266;DHT22;9259;48.194;16.322;2023-12-22T06:27:36;5.30;99.90
18266;DHT22;9259;48.194;16.322;2023-12-22T06:30:05;5.20;99.90
18266;DHT22;9259;48.194;16.322;2023-12-22T06:32:34;5.20;99.90
18266;DHT22;9259;48.194;16.322;2023-12-22T06:35:07;5.10;99.90
18266;DHT22;9259;48.194;16.322;2023-12-22T06:37:36;5.10;99.90
18266;DHT22;9259;48.194;16.322;2023-12-22T06:40:06;5.10;99.90
18266;DHT22;9259;48.194;16.322;2023-12-22T06:42:35;5.10;99.90
18266;DHT22;9259;48.194;16.322;2023-12-22T06:45:03;5.10;99.90
18266;DHT22;9259;48.194;16.322;2023-12-22T06:47:31;5.00;99.90
18266;DHT22;9259;48.194;16.322;2023-12-22T06:49:59;5.00;99.90
18266;DHT22;9259;48.194;16.322;2023-12-22T06:52:28;4.90;99.90
18266;DHT22;9259;48.194;16.322;2023-12-22T06:54:56;4.90;99.90
18266;DHT22;9259;48.194;16.322;2023-12-22T06:57:25;4.90;99.90
18266;DHT22;9259;48.194;16.322;2023-12-22T06:59:53;5.00;99.90
18266;DHT22;9259;48.194;16.322;2023-12-22T07:02:21;5.00;99.90
18266;DHT22;9259;48.194;16.322;2023-12-22T07:05:01;5.00;99.90
18266;DHT22;9259;48.194;16.322;2023-12-22T07:07:33;5.00;99.90
18266;DHT22;9259;48.194;16.322;2023-12-22T07:10:01;5.10;99.90
18266;DHT22;9259;48.194;16.322;2023-12-22T07:12:30;5.00;99.90
18266;DHT22;9259;48.194;16.322;2023-12-22T07:14:58;5.10;99.90
18266;DHT22;9259;48.194;16.322;2023-12-22T07:17:26;5.10;99.90
18266;DHT22;9259;48.194;16.322;2023-12-22T07:19:54;5.10;99.90
18266;DHT22;9259;48.194;16.322;2023-12-22T07:22:24;5.10;99.90
18266;DHT22;9259;48.194;16.322;2023-12-22T07:24:51;5.20;99.90
18266;DHT22;9259;48.194;16.322;2023-12-22T07:27:19;5.20;99.90
18266;DHT22;9259;48.194;16.322;2023-12-22T07:29:48;5.20;99.90
18266;DHT22;9259;48.194;16.322;2023-12-22T07:32:16;5.20;99.90
18266;DHT22;9259;48.194;16.322;2023-12-22T07:34:44;5.20;99.90
18266;DHT22;9259;48.194;16.322;2023-12-22T07:37:12;5.30;99.90
18266;DHT22;9259;48.194;16.322;2023-12-22T07:39:40;5.30;99.90
18266;DHT22;9259;48.194;16.322;2023-12-22T07:42:09;5.30;99.90
18266;DHT22;9259;48.194;16.322;2023-12-22T07:44:37;5.30;99.90
18266;DHT22;9259;48.194;16.322;2023-12-22T07:47:06;5.30;99.90
18266;DHT22;9259;48.194;16.322;2023-12-22T07:49:35;5.30;99.90
18266;DHT22;9259;48.194;16.322;2023-12-22T07:52:04;5.30;99.90
18266;DHT22;9259;48.194;16.322;2023-12-22T07:54:32;5.40;99.90
18266;DHT22;9259;48.194;16.322;2023-12-22T07:57:00;5.40;99.90
18266;DHT22;9259;48.194;16.322;2023-12-22T07:59:28;5.50;99.90
18266;DHT22;9259;48.194;16.322;2023-12-22T08:01:55;5.50;99.90
18266;DHT22;9259;48.194;16.322;2023-12-22T08:04:25;5.50;99.90
18266;DHT22;9259;48.194;16.322;2023-12-22T08:06:52;5.50;99.90
18266;DHT22;9259;48.194;16.322;2023-12-22T08:09:20;5.50;99.90
18266;DHT22;9259;48.194;16.322;2023-12-22T08:11:49;5.50;99.90
18266;DHT22;9259;48.194;16.322;2023-12-22T08:14:19;5.50;99.90
18266;DHT22;9259;48.194;16.322;2023-12-22T08:16:47;5.50;99.90
18266;DHT22;9259;48.194;16.322;2023-12-22T08:19:14;5.60;99.90
18266;DHT22;9259;48.194;16.322;2023-12-22T08:21:44;5.60;99.90
18266;DHT22;9259;48.194;16.322;2023-12-22T08:24:12;5.60;99.90
18266;DHT22;9259;48.194;16.322;2023-12-22T08:26:40;5.60;99.90
18266;DHT22;9259;48.194;16.322;2023-12-22T08:29:07;5.60;99.90
18266;DHT22;9259;48.194;16.322;2023-12-22T08:31:35;5.60;99.90
18266;DHT22;9259;48.194;16.322;2023-12-22T08:34:03;5.60;99.90
18266;DHT22;9259;48.194;16.322;2023-12-22T08:36:31;5.70;99.90
18266;DHT22;9259;48.194;16.322;2023-12-22T08:39:01;5.80;99.90
18266;DHT22;9259;48.194;16.322;2023-12-22T08:41:29;6.10;99.90
18266;DHT22;9259;48.194;16.322;2023-12-22T08:44:02;6.60;99.90
18266;DHT22;9259;48.194;16.322;2023-12-22T08:46:30;7.00;99.90
18266;DHT22;9259;48.194;16.322;2023-12-22T08:48:58;7.00;99.90
18266;DHT22;9259;48.194;16.322;2023-12-22T08:51:26;7.90;99.90
18266;DHT22;9259;48.194;16.322;2023-12-22T08:53:54;7.80;99.90
18266;DHT22;9259;48.194;16.322;2023-12-22T08:56:24;7.50;99.90
18266;DHT22;9259;48.194;16.322;2023-12-22T08:58:53;7.90;99.90
18266;DHT22;9259;48.194;16.322;2023-12-22T09:01:23;9.40;99.90
18266;DHT22;9259;48.194;16.322;2023-12-22T09:03:51;10.10;99.90
18266;DHT22;9259;48.194;16.322;2023-12-22T09:06:20;11.10;99.90
18266;DHT22;9259;48.194;16.322;2023-12-22T09:08:49;11.60;99.90
18266;DHT22;9259;48.194;16.322;2023-12-22T09:11:17;10.90;99.90
18266;DHT22;9259;48.194;16.322;2023-12-22T09:13:47;11.00;99.90
18266;DHT22;9259;48.194;16.322;2023-12-22T09:16:20;12.10;99.90
18266;DHT22;9259;48.194;16.322;2023-12-22T09:18:49;12.20;99.90
18266;DHT22;9259;48.194;16.322;2023-12-22T09:21:17;11.80;99.90
18266;DHT22;9259;48.194;16.322;2023-12-22T09:23:46;11.70;99.90
18266;DHT22;9259;48.194;16.322;2023-12-22T09:26:14;12.10;99.90
18266;DHT22;9259;48.194;16.322;2023-12-22T09:28:42;11.60;99.90
18266;DHT22;9259;48.194;16.322;2023-12-22T09:31:12;12.50;99.90
18266;DHT22;9259;48.194;16.322;2023-12-22T09:33:40;11.60;99.90
18266;DHT22;9259;48.194;16.322;2023-12-22T09:36:09;11.90;99.90
18266;DHT22;9259;48.194;16.322;2023-12-22T09:38:38;10.90;99.90
18266;DHT22;9259;48.194;16.322;2023-12-22T09:41:06;10.60;99.90
18266;DHT22;9259;48.194;16.322;2023-12-22T09:43:35;9.30;99.90
18266;DHT22;9259;48.194;16.322;2023-12-22T09:46:04;8.90;99.90
18266;DHT22;9259;48.194;16.322;2023-12-22T09:48:36;8.40;99.90
18266;DHT22;9259;48.194;16.322;2023-12-22T09:51:07;7.70;99.90
18266;DHT22;9259;48.194;16.322;2023-12-22T09:53:36;7.30;99.90
18266;DHT22;9259;48.194;16.322;2023-12-22T09:56:06;7.20;99.90
18266;DHT22;9259;48.194;16.322;2023-12-22T09:58:35;7.50;99.90
18266;DHT22;9259;48.194;16.322;2023-12-22T10:01:05;7.50;99.90
18266;DHT22;9259;48.194;16.322;2023-12-22T10:03:35;7.70;99.90
18266;DHT22;9259;48.194;16.322;2023-12-22T10:06:04;7.10;99.90
18266;DHT22;9259;48.194;16.322;2023-12-22T10:08:33;7.00;99.90
18266;DHT22;9259;48.194;16.322;2023-12-22T10:11:01;6.80;99.90
18266;DHT22;9259;48.194;16.322;2023-12-22T10:13:31;6.70;99.90
18266;DHT22;9259;48.194;16.322;2023-12-22T10:16:01;6.70;99.90
18266;DHT22;9259;48.194;16.322;2023-12-22T10:18:29;6.70;99.90
18266;DHT22;9259;48.194;16.322;2023-12-22T10:20:58;6.70;99.90
18266;DHT22;9259;48.194;16.322;2023-12-22T10:23:28;6.80;99.90
18266;DHT22;9259;48.194;16.322;2023-12-22T10:25:57;6.70;99.90
18266;DHT22;9259;48.194;16.322;2023-12-22T10:28:27;6.70;99.90
18266;DHT22;9259;48.194;16.322;2023-12-22T10:30:56;6.70;99.90
18266;DHT22;9259;48.194;16.322;2023-12-22T10:33:30;6.80;99.90
18266;DHT22;9259;48.194;16.322;2023-12-22T10:36:00;7.50;99.90
18266;DHT22;9259;48.194;16.322;2023-12-22T10:38:32;8.90;99.90
18266;DHT22;9259;48.194;16.322;2023-12-22T10:41:01;10.60;99.90
18266;DHT22;9259;48.194;16.322;2023-12-22T10:43:29;12.00;99.90
18266;DHT22;9259;48.194;16.322;2023-12-22T10:45:57;11.50;99.90
18266;DHT22;9259;48.194;16.322;2023-12-22T10:48:25;11.10;99.90
18266;DHT22;9259;48.194;16.322;2023-12-22T10:50:53;10.70;99.90
18266;DHT22;9259;48.194;16.322;2023-12-22T10:53:22;9.80;99.90
18266;DHT22;9259;48.194;16.322;2023-12-22T10:55:51;9.80;99.90
18266;DHT22;9259;48.194;16.322;2023-12-22T10:58:19;11.10;99.90
18266;DHT22;9259;48.194;16.322;2023-12-22T11:00:48;11.20;99.90
18266;DHT22;9259;48.194;16.322;2023-12-22T11:03:23;12.30;99.90
18266;DHT22;9259;48.194;16.322;2023-12-22T11:05:54;11.60;99.90
18266;DHT22;9259;48.194;16.322;2023-12-22T11:08:28;11.30;99.90
18266;DHT22;9259;48.194;16.322;2023-12-22T11:10:57;12.20;99.90
18266;DHT22;9259;48.194;16.322;2023-12-22T11:13:26;12.60;99.90
18266;DHT22;9259;48.194;16.322;2023-12-22T11:15:54;12.10;99.90
18266;DHT22;9259;48.194;16.322;2023-12-22T11:18:23;11.40;99.90
18266;DHT22;9259;48.194;16.322;2023-12-22T11:20:52;10.40;99.90
18266;DHT22;9259;48.194;16.322;2023-12-22T11:23:20;10.80;99.90
18266;DHT22;9259;48.194;16.322;2023-12-22T11:25:51;10.40;99.90
18266;DHT22;9259;48.194;16.322;2023-12-22T11:28:21;9.20;99.90
18266;DHT22;9259;48.194;16.322;2023-12-22T11:30:51;8.70;99.90
18266;DHT22;9259;48.194;16.322;2023-12-22T11:33:19;8.30;99.90
18266;DHT22;9259;48.194;16.322;2023-12-22T11:35:48;8.00;99.90
18266;DHT22;9259;48.194;16.322;2023-12-22T11:38:18;7.50;99.90
18266;DHT22;9259;48.194;16.322;2023-12-22T11:40:46;7.30;99.90
18266;DHT22;9259;48.194;16.322;2023-12-22T11:43:16;6.90;99.90
18266;DHT22;9259;48.194;16.322;2023-12-22T11:45:45;6.50;99.90
18266;DHT22;9259;48.194;16.322;2023-12-22T11:48:13;7.40;99.90
18266;DHT22;9259;48.194;16.322;2023-12-22T11:50:42;8.80;99.90
18266;DHT22;9259;48.194;16.322;2023-12-22T11:53:20;9.20;99.90
18266;DHT22;9259;48.194;16.322;2023-12-22T11:56:02;10.00;99.90
18266;DHT22;9259;48.194;16.322;2023-12-22T11:58:37;9.60;99.90
18266;DHT22;9259;48.194;16.322;2023-12-22T12:01:07;9.80;99.90
18266;DHT22;9259;48.194;16.322;2023-12-22T12:03:37;10.20;99.90
18266;DHT22;9259;48.194;16.322;2023-12-22T12:06:13;10.10;99.90
18266;DHT22;9259;48.194;16.322;2023-12-22T12:08:41;10.80;99.90
18266;DHT22;9259;48.194;16.322;2023-12-22T12:11:09;11.30;99.90
18266;DHT22;9259;48.194;16.322;2023-12-22T12:13:42;11.00;99.90
18266;DHT22;9259;48.194;16.322;2023-12-22T12:16:12;10.00;99.90
18266;DHT22;9259;48.194;16.322;2023-12-22T12:18:40;9.10;99.90
18266;DHT22;9259;48.194;16.322;2023-12-22T12:21:09;8.60;99.90
18266;DHT22;9259;48.194;16.322;2023-12-22T12:23:38;8.00;99.90
18266;DHT22;9259;48.194;16.322;2023-12-22T12:26:08;7.60;99.90
18266;DHT22;9259;48.194;16.322;2023-12-22T12:28:36;7.30;99.90
18266;DHT22;9259;48.194;16.322;2023-12-22T12:31:09;7.20;99.90
18266;DHT22;9259;48.194;16.322;2023-12-22T12:33:37;7.20;99.90
18266;DHT22;9259;48.194;16.322;2023-12-22T12:36:05;7.20;99.90
18266;DHT22;9259;48.194;16.322;2023-12-22T12:38:40;7.20;99.90
18266;DHT22;9259;48.194;16.322;2023-12-22T12:41:10;7.20;99.90
18266;DHT22;9259;48.194;16.322;2023-12-22T12:43:42;7.20;99.90
18266;DHT22;9259;48.194;16.322;2023-12-22T12:46:10;7.30;99.90
18266;DHT22;9259;48.194;16.322;2023-12-22T12:48:38;7.30;99.90
18266;DHT22;9259;48.194;16.322;2023-12-22T12:51:07;7.30;99.90
18266;DHT22;9259;48.194;16.322;2023-12-22T12:53:36;7.30;99.90
18266;DHT22;9259;48.194;16.322;2023-12-22T12:56:05;7.30;99.90
18266;DHT22;9259;48.194;16.322;2023-12-22T12:58:33;7.20;99.90
18266;DHT22;9259;48.194;16.322;2023-12-22T13:01:07;7.10;99.90
18266;DHT22;9259;48.194;16.322;2023-12-22T13:03:53;7.00;99.90
18266;DHT22;9259;48.194;16.322;2023-12-22T13:06:21;6.90;99.90
18266;DHT22;9259;48.194;16.322;2023-12-22T13:08:49;6.90;99.90
18266;DHT22;9259;48.194;16.322;2023-12-22T13:11:20;6.90;99.90
18266;DHT22;9259;48.194;16.322;2023-12-22T13:13:49;7.00;99.90
18266;DHT22;9259;48.194;16.322;2023-12-22T13:16:19;6.90;99.90
18266;DHT22;9259;48.194;16.322;2023-12-22T13:18:48;6.80;99.90
18266;DHT22;9259;48.194;16.322;2023-12-22T13:21:16;6.80;99.90
18266;DHT22;9259;48.194;16.322;2023-12-22T13:23:44;6.80;99.90
18266;DHT22;9259;48.194;16.322;2023-12-22T13:26:18;6.70;99.90
18266;DHT22;9259;48.194;16.322;2023-12-22T13:28:46;6.70;99.90
18266;DHT22;9259;48.194;16.322;2023-12-22T13:31:14;6.70;99.90
18266;DHT22;9259;48.194;16.322;2023-12-22T13:33:46;6.70;99.90
18266;DHT22;9259;48.194;16.322;2023-12-22T13:36:13;6.80;99.90
18266;DHT22;9259;48.194;16.322;2023-12-22T13:38:45;6.90;99.90
18266;DHT22;9259;48.194;16.322;2023-12-22T13:41:14;7.00;99.90
18266;DHT22;9259;48.194;16.322;2023-12-22T13:43:43;7.00;99.90
18266;DHT22;9259;48.194;16.322;2023-12-22T13:46:12;6.90;99.90
18266;DHT22;9259;48.194;16.322;2023-12-22T13:48:40;6.90;99.90
18266;DHT22;9259;48.194;16.322;2023-12-22T13:51:09;6.90;99.90
18266;DHT22;9259;48.194;16.322;2023-12-22T13:53:46;7.00;99.90
18266;DHT22;9259;48.194;16.322;2023-12-22T13:56:14;7.00;99.90
18266;DHT22;9259;48.194;16.322;2023-12-22T13:58:46;7.00;99.90
18266;DHT22;9259;48.194;16.322;2023-12-22T14:01:14;7.00;99.90
18266;DHT22;9259;48.194;16.322;2023-12-22T14:03:43;7.10;99.90
18266;DHT22;9259;48.194;16.322;2023-12-22T14:06:13;7.20;99.90
18266;DHT22;9259;48.194;16.322;2023-12-22T14:08:41;7.20;99.90
18266;DHT22;9259;48.194;16.322;2023-12-22T14:11:09;7.20;99.90
18266;DHT22;9259;48.194;16.322;2023-12-22T14:13:37;7.30;99.90
18266;DHT22;9259;48.194;16.322;2023-12-22T14:16:07;7.40;99.90
18266;DHT22;9259;48.194;16.322;2023-12-22T14:18:35;7.50;99.90
18266;DHT22;9259;48.194;16.322;2023-12-22T14:21:03;7.50;99.90
18266;DHT22;9259;48.194;16.322;2023-12-22T14:23:33;7.40;99.90
18266;DHT22;9259;48.194;16.322;2023-12-22T14:26:01;7.40;99.90
18266;DHT22;9259;48.194;16.322;2023-12-22T14:28:29;7.30;99.90
18266;DHT22;9259;48.194;16.322;2023-12-22T14:30:57;7.20;99.90
18266;DHT22;9259;48.194;16.322;2023-12-22T14:33:24;7.10;99.90
18266;DHT22;9259;48.194;16.322;2023-12-22T14:35:53;7.00;99.90
18266;DHT22;9259;48.194;16.322;2023-12-22T14:38:21;6.90;99.90
18266;DHT22;9259;48.194;16.322;2023-12-22T14:40:50;6.80;99.90
18266;DHT22;9259;48.194;16.322;2023-12-22T14:43:18;6.70;99.90
18266;DHT22;9259;48.194;16.322;2023-12-22T14:45:45;6.50;99.90
18266;DHT22;9259;48.194;16.322;2023-12-22T14:48:13;6.40;99.90
18266;DHT22;9259;48.194;16.322;2023-12-22T14:50:41;6.40;99.90
18266;DHT22;9259;48.194;16.322;2023-12-22T14:53:09;6.20;99.90
18266;DHT22;9259;48.194;16.322;2023-12-22T14:55:37;6.20;99.90
18266;DHT22;9259;48.194;16.322;2023-12-22T14:58:06;6.10;99.90
18266;DHT22;9259;48.194;16.322;2023-12-22T15:00:36;5.70;99.90
18266;DHT22;9259;48.194;16.322;2023-12-22T15:03:04;5.50;99.90
18266;DHT22;9259;48.194;16.322;2023-12-22T15:05:32;5.30;99.90
18266;DHT22;9259;48.194;16.322;2023-12-22T15:07:59;5.10;99.90
18266;DHT22;9259;48.194;16.322;2023-12-22T15:10:28;5.00;99.90
18266;DHT22;9259;48.194;16.322;2023-12-22T15:12:56;4.90;99.90
18266;DHT22;9259;48.194;16.322;2023-12-22T15:15:25;4.90;99.90
18266;DHT22;9259;48.194;16.322;2023-12-22T15:17:53;4.80;99.90
18266;DHT22;9259;48.194;16.322;2023-12-22T15:20:21;4.70;99.90
18266;DHT22;9259;48.194;16.322;2023-12-22T15:22:49;4.70;99.90
18266;DHT22;9259;48.194;16.322;2023-12-22T15:25:16;4.70;99.90
18266;DHT22;9259;48.194;16.322;2023-12-22T15:27:45;4.80;99.90
18266;DHT22;9259;48.194;16.322;2023-12-22T15:30:13;4.80;99.90
18266;DHT22;9259;48.194;16.322;2023-12-22T15:32:43;4.80;99.90
18266;DHT22;9259;48.194;16.322;2023-12-22T15:35:10;4.90;99.90
18266;DHT22;9259;48.194;16.322;2023-12-22T15:37:38;4.90;99.90
18266;DHT22;9259;48.194;16.322;2023-12-22T15:40:08;4.90;99.90
18266;DHT22;9259;48.194;16.322;2023-12-22T15:42:37;4.90;99.90
18266;DHT22;9259;48.194;16.322;2023-12-22T15:45:05;4.90;99.90
18266;DHT22;9259;48.194;16.322;2023-12-22T15:47:34;5.00;99.90
18266;DHT22;9259;48.194;16.322;2023-12-22T15:50:04;4.90;99.90
18266;DHT22;9259;48.194;16.322;2023-12-22T15:52:35;5.00;99.90
18266;DHT22;9259;48.194;16.322;2023-12-22T15:55:03;5.20;99.90